sensor_id;sensor_type;location;lat;lon;timestamp;P1;durP1;ratioP1;P2;durP2;ratioP2
8488;SDS011;4281;45.772;12.852;2022-12-07T00:01:16;9.70;;;7.47;;
8488;SDS011;4281;45.772;12.852;2022-12-07T00:03:47;8.23;;;7.37;;
8488;SDS011;4281;45.772;12.852;2022-12-07T00:06:16;7.80;;;7.00;;
8488;SDS011;4281;45.772;12.852;2022-12-07T00:08:45;8.27;;;7.37;;
8488;SDS011;4281;45.772;12.852;2022-12-07T00:11:13;7.67;;;6.97;;
8488;SDS011;4281;45.772;12.852;2022-12-07T00:13:42;7.80;;;7.00;;
8488;SDS011;4281;45.772;12.852;2022-12-07T00:16:11;7.20;;;6.40;;
8488;SDS011;4281;45.772;12.852;2022-12-07T00:18:40;7.10;;;6.33;;
8488;SDS011;4281;45.772;12.852;2022-12-07T00:21:10;7.17;;;6.50;;
8488;SDS011;4281;45.772;12.852;2022-12-07T00:23:40;6.60;;;5.90;;
8488;SDS011;4281;45.772;12.852;2022-12-07T00:26:09;6.30;;;5.60;;
8488;SDS011;4281;45.772;12.852;2022-12-07T00:28:38;5.30;;;4.80;;
8488;SDS011;4281;45.772;12.852;2022-12-07T00:31:07;5.83;;;5.03;;
8488;SDS011;4281;45.772;12.852;2022-12-07T00:33:36;5.07;;;4.57;;
8488;SDS011;4281;45.772;12.852;2022-12-07T00:36:06;4.83;;;4.33;;
8488;SDS011;4281;45.772;12.852;2022-12-07T00:38:36;5.17;;;3.80;;
8488;SDS011;4281;45.772;12.852;2022-12-07T00:41:05;4.00;;;3.60;;
8488;SDS011;4281;45.772;12.852;2022-12-07T00:43:34;4.67;;;3.60;;
8488;SDS011;4281;45.772;12.852;2022-12-07T00:46:01;3.70;;;3.30;;
8488;SDS011;4281;45.772;12.852;2022-12-07T00:48:29;3.40;;;3.10;;
8488;SDS011;4281;45.772;12.852;2022-12-07T00:50:57;3.83;;;3.50;;
8488;SDS011;4281;45.772;12.852;2022-12-07T00:53:25;4.27;;;3.27;;
8488;SDS011;4281;45.772;12.852;2022-12-07T00:55:54;3.53;;;3.10;;
8488;SDS011;4281;45.772;12.852;2022-12-07T00:58:22;3.80;;;3.40;;
8488;SDS011;4281;45.772;12.852;2022-12-07T01:00:50;3.27;;;2.97;;
8488;SDS011;4281;45.772;12.852;2022-12-07T01:03:18;3.53;;;3.20;;
8488;SDS011;4281;45.772;12.852;2022-12-07T01:05:49;3.20;;;2.90;;
8488;SDS011;4281;45.772;12.852;2022-12-07T01:08:17;3.50;;;3.20;;
8488;SDS011;4281;45.772;12.852;2022-12-07T01:10:46;3.73;;;3.33;;
8488;SDS011;4281;45.772;12.852;2022-12-07T01:13:15;3.07;;;2.77;;
8488;SDS011;4281;45.772;12.852;2022-12-07T01:15:44;3.50;;;3.20;;
8488;SDS011;4281;45.772;12.852;2022-12-07T01:18:12;2.87;;;2.67;;
8488;SDS011;4281;45.772;12.852;2022-12-07T01:20:39;3.40;;;2.77;;
8488;SDS011;4281;45.772;12.852;2022-12-07T01:23:07;3.47;;;3.17;;
8488;SDS011;4281;45.772;12.852;2022-12-07T01:25:35;3.00;;;2.80;;
8488;SDS011;4281;45.772;12.852;2022-12-07T01:28:02;3.40;;;3.10;;
8488;SDS011;4281;45.772;12.852;2022-12-07T01:30:31;3.60;;;2.80;;
8488;SDS011;4281;45.772;12.852;2022-12-07T01:32:59;3.40;;;2.90;;
8488;SDS011;4281;45.772;12.852;2022-12-07T01:35:27;3.00;;;2.70;;
8488;SDS011;4281;45.772;12.852;2022-12-07T01:37:54;2.43;;;2.23;;
8488;SDS011;4281;45.772;12.852;2022-12-07T01:40:22;2.83;;;2.53;;
8488;SDS011;4281;45.772;12.852;2022-12-07T01:42:50;2.60;;;2.40;;
8488;SDS011;4281;45.772;12.852;2022-12-07T01:45:34;2.47;;;2.27;;
8488;SDS011;4281;45.772;12.852;2022-12-07T01:48:05;3.33;;;2.53;;
8488;SDS011;4281;45.772;12.852;2022-12-07T01:50:34;3.03;;;2.60;;
8488;SDS011;4281;45.772;12.852;2022-12-07T01:53:03;2.60;;;2.30;;
8488;SDS011;4281;45.772;12.852;2022-12-07T01:55:32;2.83;;;2.63;;
8488;SDS011;4281;45.772;12.852;2022-12-07T01:58:01;2.60;;;2.30;;
8488;SDS011;4281;45.772;12.852;2022-12-07T02:00:29;2.73;;;2.43;;
8488;SDS011;4281;45.772;12.852;2022-12-07T02:02:59;2.73;;;2.30;;
8488;SDS011;4281;45.772;12.852;2022-12-07T02:05:32;3.07;;;2.70;;
8488;SDS011;4281;45.772;12.852;2022-12-07T02:08:01;3.00;;;2.70;;
8488;SDS011;4281;45.772;12.852;2022-12-07T02:10:30;3.13;;;2.57;;
8488;SDS011;4281;45.772;12.852;2022-12-07T02:12:59;3.33;;;2.73;;
8488;SDS011;4281;45.772;12.852;2022-12-07T02:15:34;2.60;;;2.40;;
8488;SDS011;4281;45.772;12.852;2022-12-07T02:18:12;2.53;;;2.33;;
8488;SDS011;4281;45.772;12.852;2022-12-07T02:20:44;2.63;;;2.40;;
8488;SDS011;4281;45.772;12.852;2022-12-07T02:23:30;3.10;;;2.60;;
8488;SDS011;4281;45.772;12.852;2022-12-07T02:29:21;3.00;;;2.50;;
8488;SDS011;4281;45.772;12.852;2022-12-07T02:31:52;3.17;;;2.67;;
8488;SDS011;4281;45.772;12.852;2022-12-07T02:34:26;2.87;;;2.47;;
8488;SDS011;4281;45.772;12.852;2022-12-07T02:36:59;3.07;;;2.20;;
8488;SDS011;4281;45.772;12.852;2022-12-07T02:39:31;2.80;;;2.50;;
8488;SDS011;4281;45.772;12.852;2022-12-07T02:42:02;2.73;;;2.43;;
8488;SDS011;4281;45.772;12.852;2022-12-07T02:44:33;5.03;;;2.90;;
8488;SDS011;4281;45.772;12.852;2022-12-07T02:47:02;3.07;;;2.50;;
8488;SDS011;4281;45.772;12.852;2022-12-07T02:49:32;3.23;;;2.63;;
8488;SDS011;4281;45.772;12.852;2022-12-07T02:52:00;2.50;;;2.10;;
8488;SDS011;4281;45.772;12.852;2022-12-07T02:54:27;2.43;;;2.23;;
8488;SDS011;4281;45.772;12.852;2022-12-07T02:56:56;3.07;;;2.30;;
8488;SDS011;4281;45.772;12.852;2022-12-07T02:59:31;2.47;;;2.27;;
8488;SDS011;4281;45.772;12.852;2022-12-07T03:02:07;2.60;;;2.30;;
8488;SDS011;4281;45.772;12.852;2022-12-07T03:04:42;2.77;;;2.53;;
8488;SDS011;4281;45.772;12.852;2022-12-07T03:07:16;2.10;;;1.90;;
8488;SDS011;4281;45.772;12.852;2022-12-07T03:09:51;3.10;;;2.10;;
8488;SDS011;4281;45.772;12.852;2022-12-07T03:12:22;3.03;;;2.20;;
8488;SDS011;4281;45.772;12.852;2022-12-07T03:14:58;2.47;;;2.27;;
8488;SDS011;4281;45.772;12.852;2022-12-07T03:17:29;3.53;;;2.30;;
8488;SDS011;4281;45.772;12.852;2022-12-07T03:20:00;2.73;;;2.10;;
8488;SDS011;4281;45.772;12.852;2022-12-07T03:22:31;2.60;;;2.30;;
8488;SDS011;4281;45.772;12.852;2022-12-07T03:25:00;2.60;;;2.20;;
8488;SDS011;4281;45.772;12.852;2022-12-07T03:27:31;3.13;;;2.30;;
8488;SDS011;4281;45.772;12.852;2022-12-07T03:30:03;2.50;;;2.30;;
8488;SDS011;4281;45.772;12.852;2022-12-07T03:32:35;2.40;;;1.97;;
8488;SDS011;4281;45.772;12.852;2022-12-07T03:35:05;2.60;;;2.17;;
8488;SDS011;4281;45.772;12.852;2022-12-07T03:37:36;2.03;;;1.90;;
8488;SDS011;4281;45.772;12.852;2022-12-07T03:40:08;2.37;;;1.83;;
8488;SDS011;4281;45.772;12.852;2022-12-07T03:42:39;2.10;;;1.60;;
8488;SDS011;4281;45.772;12.852;2022-12-07T03:45:08;2.20;;;2.00;;
8488;SDS011;4281;45.772;12.852;2022-12-07T03:47:37;2.40;;;1.90;;
8488;SDS011;4281;45.772;12.852;2022-12-07T03:50:10;2.50;;;2.27;;
8488;SDS011;4281;45.772;12.852;2022-12-07T03:52:42;2.50;;;2.10;;
8488;SDS011;4281;45.772;12.852;2022-12-07T03:55:14;2.13;;;1.80;;
8488;SDS011;4281;45.772;12.852;2022-12-07T03:57:46;2.40;;;2.00;;
8488;SDS011;4281;45.772;12.852;2022-12-07T04:00:16;2.97;;;2.20;;
8488;SDS011;4281;45.772;12.852;2022-12-07T04:02:45;3.27;;;2.00;;
8488;SDS011;4281;45.772;12.852;2022-12-07T04:05:13;2.60;;;2.07;;
8488;SDS011;4281;45.772;12.852;2022-12-07T04:07:41;2.97;;;2.30;;
8488;SDS011;4281;45.772;12.852;2022-12-07T04:10:09;2.60;;;2.20;;
8488;SDS011;4281;45.772;12.852;2022-12-07T04:12:37;2.00;;;1.80;;
8488;SDS011;4281;45.772;12.852;2022-12-07T04:15:06;2.13;;;1.77;;
8488;SDS011;4281;45.772;12.852;2022-12-07T04:17:36;2.00;;;1.80;;
8488;SDS011;4281;45.772;12.852;2022-12-07T04:20:04;1.93;;;1.60;;
8488;SDS011;4281;45.772;12.852;2022-12-07T04:22:33;1.90;;;1.67;;
8488;SDS011;4281;45.772;12.852;2022-12-07T04:25:00;1.80;;;1.70;;
8488;SDS011;4281;45.772;12.852;2022-12-07T04:27:28;2.20;;;2.00;;
8488;SDS011;4281;45.772;12.852;2022-12-07T04:29:56;2.27;;;1.73;;
8488;SDS011;4281;45.772;12.852;2022-12-07T04:32:24;1.93;;;1.73;;
8488;SDS011;4281;45.772;12.852;2022-12-07T04:34:53;2.30;;;1.87;;
8488;SDS011;4281;45.772;12.852;2022-12-07T04:37:21;2.23;;;1.60;;
8488;SDS011;4281;45.772;12.852;2022-12-07T04:39:49;1.43;;;1.33;;
8488;SDS011;4281;45.772;12.852;2022-12-07T04:42:17;2.00;;;1.80;;
8488;SDS011;4281;45.772;12.852;2022-12-07T04:44:45;1.63;;;1.53;;
8488;SDS011;4281;45.772;12.852;2022-12-07T04:47:12;2.13;;;1.93;;
8488;SDS011;4281;45.772;12.852;2022-12-07T04:49:40;1.90;;;1.60;;
8488;SDS011;4281;45.772;12.852;2022-12-07T04:52:09;1.67;;;1.57;;
8488;SDS011;4281;45.772;12.852;2022-12-07T04:54:37;2.57;;;1.80;;
8488;SDS011;4281;45.772;12.852;2022-12-07T04:57:05;2.33;;;1.87;;
8488;SDS011;4281;45.772;12.852;2022-12-07T04:59:33;2.00;;;1.80;;
8488;SDS011;4281;45.772;12.852;2022-12-07T05:02:03;1.70;;;1.53;;
8488;SDS011;4281;45.772;12.852;2022-12-07T05:04:30;1.90;;;1.80;;
8488;SDS011;4281;45.772;12.852;2022-12-07T05:06:58;1.90;;;1.70;;
8488;SDS011;4281;45.772;12.852;2022-12-07T05:09:27;1.90;;;1.70;;
8488;SDS011;4281;45.772;12.852;2022-12-07T05:11:55;1.80;;;1.70;;
8488;SDS011;4281;45.772;12.852;2022-12-07T05:14:22;2.17;;;1.97;;
8488;SDS011;4281;45.772;12.852;2022-12-07T05:16:50;2.13;;;1.93;;
8488;SDS011;4281;45.772;12.852;2022-12-07T05:19:19;2.10;;;1.90;;
8488;SDS011;4281;45.772;12.852;2022-12-07T05:21:47;2.00;;;1.73;;
8488;SDS011;4281;45.772;12.852;2022-12-07T05:24:15;2.10;;;1.60;;
8488;SDS011;4281;45.772;12.852;2022-12-07T05:26:45;2.10;;;1.60;;
8488;SDS011;4281;45.772;12.852;2022-12-07T05:29:13;1.57;;;1.43;;
8488;SDS011;4281;45.772;12.852;2022-12-07T05:31:42;2.30;;;1.63;;
8488;SDS011;4281;45.772;12.852;2022-12-07T05:34:10;1.60;;;1.40;;
8488;SDS011;4281;45.772;12.852;2022-12-07T05:36:38;1.77;;;1.60;;
8488;SDS011;4281;45.772;12.852;2022-12-07T05:39:06;1.60;;;1.27;;
8488;SDS011;4281;45.772;12.852;2022-12-07T05:41:34;1.70;;;1.60;;
8488;SDS011;4281;45.772;12.852;2022-12-07T05:44:21;1.50;;;1.40;;
8488;SDS011;4281;45.772;12.852;2022-12-07T05:46:48;1.93;;;1.73;;
8488;SDS011;4281;45.772;12.852;2022-12-07T05:49:16;1.70;;;1.60;;
8488;SDS011;4281;45.772;12.852;2022-12-07T05:54:28;1.17;;;1.07;;
8488;SDS011;4281;45.772;12.852;2022-12-07T05:56:56;2.13;;;1.63;;
8488;SDS011;4281;45.772;12.852;2022-12-07T05:59:25;2.17;;;1.80;;
8488;SDS011;4281;45.772;12.852;2022-12-07T06:01:54;2.00;;;1.80;;
8488;SDS011;4281;45.772;12.852;2022-12-07T06:04:23;2.00;;;1.80;;
8488;SDS011;4281;45.772;12.852;2022-12-07T06:06:52;1.87;;;1.60;;
8488;SDS011;4281;45.772;12.852;2022-12-07T06:09:20;2.20;;;1.70;;
8488;SDS011;4281;45.772;12.852;2022-12-07T06:11:48;2.57;;;1.60;;
8488;SDS011;4281;45.772;12.852;2022-12-07T06:14:35;1.67;;;1.30;;
8488;SDS011;4281;45.772;12.852;2022-12-07T06:17:03;2.03;;;1.60;;
8488;SDS011;4281;45.772;12.852;2022-12-07T06:19:31;2.80;;;2.60;;
8488;SDS011;4281;45.772;12.852;2022-12-07T06:21:59;2.30;;;2.10;;
8488;SDS011;4281;45.772;12.852;2022-12-07T06:24:27;2.40;;;2.20;;
8488;SDS011;4281;45.772;12.852;2022-12-07T06:26:54;1.70;;;1.60;;
8488;SDS011;4281;45.772;12.852;2022-12-07T06:29:22;1.90;;;1.70;;
8488;SDS011;4281;45.772;12.852;2022-12-07T06:31:51;1.80;;;1.60;;
8488;SDS011;4281;45.772;12.852;2022-12-07T06:34:20;2.03;;;1.43;;
8488;SDS011;4281;45.772;12.852;2022-12-07T06:36:49;1.50;;;1.40;;
8488;SDS011;4281;45.772;12.852;2022-12-07T06:39:19;1.40;;;1.30;;
8488;SDS011;4281;45.772;12.852;2022-12-07T06:41:48;1.47;;;1.37;;
8488;SDS011;4281;45.772;12.852;2022-12-07T06:44:18;1.87;;;1.60;;
8488;SDS011;4281;45.772;12.852;2022-12-07T06:46:45;1.97;;;1.63;;
8488;SDS011;4281;45.772;12.852;2022-12-07T06:49:15;3.97;;;2.40;;
8488;SDS011;4281;45.772;12.852;2022-12-07T06:51:42;3.57;;;2.40;;
8488;SDS011;4281;45.772;12.852;2022-12-07T06:54:11;2.90;;;2.30;;
8488;SDS011;4281;45.772;12.852;2022-12-07T06:56:39;3.37;;;2.40;;
8488;SDS011;4281;45.772;12.852;2022-12-07T06:59:07;3.03;;;2.23;;
8488;SDS011;4281;45.772;12.852;2022-12-07T07:01:35;2.47;;;2.03;;
8488;SDS011;4281;45.772;12.852;2022-12-07T07:04:03;2.30;;;1.90;;
8488;SDS011;4281;45.772;12.852;2022-12-07T07:06:33;2.67;;;2.20;;
8488;SDS011;4281;45.772;12.852;2022-12-07T07:09:01;4.67;;;2.47;;
8488;SDS011;4281;45.772;12.852;2022-12-07T07:11:28;3.40;;;2.00;;
8488;SDS011;4281;45.772;12.852;2022-12-07T07:13:56;2.83;;;2.20;;
8488;SDS011;4281;45.772;12.852;2022-12-07T07:16:28;2.67;;;2.27;;
8488;SDS011;4281;45.772;12.852;2022-12-07T07:18:57;3.43;;;1.93;;
8488;SDS011;4281;45.772;12.852;2022-12-07T07:21:27;1.97;;;1.77;;
8488;SDS011;4281;45.772;12.852;2022-12-07T07:23:56;2.40;;;1.90;;
8488;SDS011;4281;45.772;12.852;2022-12-07T07:26:24;3.70;;;2.20;;
8488;SDS011;4281;45.772;12.852;2022-12-07T07:28:51;3.73;;;2.13;;
8488;SDS011;4281;45.772;12.852;2022-12-07T07:31:19;9.37;;;2.90;;
8488;SDS011;4281;45.772;12.852;2022-12-07T07:33:47;4.80;;;2.47;;
8488;SDS011;4281;45.772;12.852;2022-12-07T07:36:15;3.13;;;2.03;;
8488;SDS011;4281;45.772;12.852;2022-12-07T07:38:42;2.70;;;1.70;;
8488;SDS011;4281;45.772;12.852;2022-12-07T07:41:11;3.30;;;1.97;;
8488;SDS011;4281;45.772;12.852;2022-12-07T07:43:39;2.30;;;1.80;;
8488;SDS011;4281;45.772;12.852;2022-12-07T07:46:07;2.17;;;1.80;;
8488;SDS011;4281;45.772;12.852;2022-12-07T07:48:35;3.33;;;2.00;;
8488;SDS011;4281;45.772;12.852;2022-12-07T07:51:04;1.93;;;1.70;;
8488;SDS011;4281;45.772;12.852;2022-12-07T07:53:33;4.13;;;2.10;;
8488;SDS011;4281;45.772;12.852;2022-12-07T07:56:00;2.90;;;2.27;;
8488;SDS011;4281;45.772;12.852;2022-12-07T07:58:29;4.40;;;2.10;;
8488;SDS011;4281;45.772;12.852;2022-12-07T08:01:02;6.30;;;3.07;;
8488;SDS011;4281;45.772;12.852;2022-12-07T08:03:31;5.17;;;3.00;;
8488;SDS011;4281;45.772;12.852;2022-12-07T08:05:58;3.63;;;2.57;;
8488;SDS011;4281;45.772;12.852;2022-12-07T08:08:26;3.57;;;2.07;;
8488;SDS011;4281;45.772;12.852;2022-12-07T08:10:54;1.93;;;1.70;;
8488;SDS011;4281;45.772;12.852;2022-12-07T08:13:22;2.57;;;1.83;;
8488;SDS011;4281;45.772;12.852;2022-12-07T08:15:57;3.40;;;1.80;;
8488;SDS011;4281;45.772;12.852;2022-12-07T08:18:25;2.23;;;2.03;;
8488;SDS011;4281;45.772;12.852;2022-12-07T08:20:58;1.93;;;1.73;;
8488;SDS011;4281;45.772;12.852;2022-12-07T08:23:26;1.90;;;1.80;;
8488;SDS011;4281;45.772;12.852;2022-12-07T08:26:04;1.73;;;1.63;;
8488;SDS011;4281;45.772;12.852;2022-12-07T08:28:33;1.50;;;1.40;;
8488;SDS011;4281;45.772;12.852;2022-12-07T08:31:03;1.70;;;1.60;;
8488;SDS011;4281;45.772;12.852;2022-12-07T08:33:31;1.83;;;1.63;;
8488;SDS011;4281;45.772;12.852;2022-12-07T08:36:00;2.97;;;1.90;;
8488;SDS011;4281;45.772;12.852;2022-12-07T08:38:27;3.40;;;1.70;;
8488;SDS011;4281;45.772;12.852;2022-12-07T08:40:57;1.53;;;1.43;;
8488;SDS011;4281;45.772;12.852;2022-12-07T08:43:25;1.80;;;1.70;;
8488;SDS011;4281;45.772;12.852;2022-12-07T08:45:54;1.90;;;1.53;;
8488;SDS011;4281;45.772;12.852;2022-12-07T08:48:31;3.00;;;2.00;;
8488;SDS011;4281;45.772;12.852;2022-12-07T08:51:00;2.03;;;1.90;;
8488;SDS011;4281;45.772;12.852;2022-12-07T08:53:29;1.90;;;1.70;;
8488;SDS011;4281;45.772;12.852;2022-12-07T08:55:57;2.43;;;1.63;;
8488;SDS011;4281;45.772;12.852;2022-12-07T08:58:25;1.53;;;1.43;;
8488;SDS011;4281;45.772;12.852;2022-12-07T09:00:52;1.60;;;1.50;;
8488;SDS011;4281;45.772;12.852;2022-12-07T09:03:20;2.27;;;1.70;;
8488;SDS011;4281;45.772;12.852;2022-12-07T09:05:49;2.53;;;1.70;;
8488;SDS011;4281;45.772;12.852;2022-12-07T09:08:17;2.20;;;2.00;;
8488;SDS011;4281;45.772;12.852;2022-12-07T09:10:45;2.63;;;2.03;;
8488;SDS011;4281;45.772;12.852;2022-12-07T09:13:13;2.87;;;1.90;;
8488;SDS011;4281;45.772;12.852;2022-12-07T09:15:41;1.87;;;1.53;;
8488;SDS011;4281;45.772;12.852;2022-12-07T09:18:09;1.67;;;1.57;;
8488;SDS011;4281;45.772;12.852;2022-12-07T09:20:37;1.73;;;1.63;;
8488;SDS011;4281;45.772;12.852;2022-12-07T09:23:06;1.97;;;1.77;;
8488;SDS011;4281;45.772;12.852;2022-12-07T09:25:34;2.70;;;1.70;;
8488;SDS011;4281;45.772;12.852;2022-12-07T09:28:02;1.63;;;1.53;;
8488;SDS011;4281;45.772;12.852;2022-12-07T09:30:30;1.93;;;1.73;;
8488;SDS011;4281;45.772;12.852;2022-12-07T09:33:17;2.03;;;1.67;;
8488;SDS011;4281;45.772;12.852;2022-12-07T09:35:45;2.57;;;1.53;;
8488;SDS011;4281;45.772;12.852;2022-12-07T09:38:15;1.70;;;1.60;;
8488;SDS011;4281;45.772;12.852;2022-12-07T09:40:43;1.93;;;1.70;;
8488;SDS011;4281;45.772;12.852;2022-12-07T09:43:12;2.10;;;1.90;;
8488;SDS011;4281;45.772;12.852;2022-12-07T09:45:40;2.20;;;2.00;;
8488;SDS011;4281;45.772;12.852;2022-12-07T09:48:15;1.90;;;1.80;;
8488;SDS011;4281;45.772;12.852;2022-12-07T09:50:46;2.17;;;1.97;;
8488;SDS011;4281;45.772;12.852;2022-12-07T09:53:19;2.53;;;2.00;;
8488;SDS011;4281;45.772;12.852;2022-12-07T09:55:55;2.10;;;1.90;;
8488;SDS011;4281;45.772;12.852;2022-12-07T09:58:24;2.00;;;1.80;;
8488;SDS011;4281;45.772;12.852;2022-12-07T10:00:53;2.13;;;1.90;;
8488;SDS011;4281;45.772;12.852;2022-12-07T10:03:21;2.27;;;2.07;;
8488;SDS011;4281;45.772;12.852;2022-12-07T10:05:49;3.47;;;2.90;;
8488;SDS011;4281;45.772;12.852;2022-12-07T10:08:19;3.13;;;2.67;;
8488;SDS011;4281;45.772;12.852;2022-12-07T10:10:49;2.53;;;2.30;;
8488;SDS011;4281;45.772;12.852;2022-12-07T10:13:20;2.50;;;2.30;;
8488;SDS011;4281;45.772;12.852;2022-12-07T10:15:49;2.27;;;2.07;;
8488;SDS011;4281;45.772;12.852;2022-12-07T10:18:27;2.80;;;2.33;;
8488;SDS011;4281;45.772;12.852;2022-12-07T10:21:00;2.30;;;2.10;;
8488;SDS011;4281;45.772;12.852;2022-12-07T10:23:31;2.17;;;1.93;;
8488;SDS011;4281;45.772;12.852;2022-12-07T10:25:59;2.03;;;1.70;;
8488;SDS011;4281;45.772;12.852;2022-12-07T10:28:43;2.03;;;1.83;;
8488;SDS011;4281;45.772;12.852;2022-12-07T10:31:15;2.27;;;2.07;;
8488;SDS011;4281;45.772;12.852;2022-12-07T10:33:48;2.23;;;2.00;;
8488;SDS011;4281;45.772;12.852;2022-12-07T10:36:19;3.00;;;2.40;;
8488;SDS011;4281;45.772;12.852;2022-12-07T10:38:51;2.50;;;2.20;;
8488;SDS011;4281;45.772;12.852;2022-12-07T10:41:19;2.33;;;2.03;;
8488;SDS011;4281;45.772;12.852;2022-12-07T10:43:48;2.30;;;2.10;;
8488;SDS011;4281;45.772;12.852;2022-12-07T10:46:24;1.77;;;1.67;;
8488;SDS011;4281;45.772;12.852;2022-12-07T10:48:59;2.53;;;1.93;;
8488;SDS011;4281;45.772;12.852;2022-12-07T10:51:39;2.23;;;2.03;;
8488;SDS011;4281;45.772;12.852;2022-12-07T10:54:12;2.53;;;2.33;;
8488;SDS011;4281;45.772;12.852;2022-12-07T10:56:48;2.33;;;2.00;;
8488;SDS011;4281;45.772;12.852;2022-12-07T11:02:25;3.93;;;2.33;;
8488;SDS011;4281;45.772;12.852;2022-12-07T11:05:04;2.27;;;2.07;;
8488;SDS011;4281;45.772;12.852;2022-12-07T11:07:39;2.40;;;2.20;;
8488;SDS011;4281;45.772;12.852;2022-12-07T11:10:14;2.30;;;2.10;;
8488;SDS011;4281;45.772;12.852;2022-12-07T11:12:48;2.47;;;2.27;;
8488;SDS011;4281;45.772;12.852;2022-12-07T11:15:23;2.30;;;2.10;;
8488;SDS011;4281;45.772;12.852;2022-12-07T11:17:55;2.47;;;2.20;;
8488;SDS011;4281;45.772;12.852;2022-12-07T11:20:32;3.00;;;2.50;;
8488;SDS011;4281;45.772;12.852;2022-12-07T11:23:06;2.77;;;2.40;;
8488;SDS011;4281;45.772;12.852;2022-12-07T11:25:44;2.60;;;2.40;;
8488;SDS011;4281;45.772;12.852;2022-12-07T11:28:19;3.43;;;2.40;;
8488;SDS011;4281;45.772;12.852;2022-12-07T11:30:55;3.00;;;2.53;;
8488;SDS011;4281;45.772;12.852;2022-12-07T11:33:27;2.70;;;2.50;;
8488;SDS011;4281;45.772;12.852;2022-12-07T11:36:02;2.70;;;2.50;;
8488;SDS011;4281;45.772;12.852;2022-12-07T11:38:37;2.70;;;2.40;;
8488;SDS011;4281;45.772;12.852;2022-12-07T11:41:10;2.90;;;2.60;;
8488;SDS011;4281;45.772;12.852;2022-12-07T11:43:45;3.43;;;2.97;;
8488;SDS011;4281;45.772;12.852;2022-12-07T11:46:22;3.40;;;3.10;;
8488;SDS011;4281;45.772;12.852;2022-12-07T11:48:54;3.90;;;3.00;;
8488;SDS011;4281;45.772;12.852;2022-12-07T11:51:26;3.27;;;2.97;;
8488;SDS011;4281;45.772;12.852;2022-12-07T11:53:59;3.30;;;3.00;;
8488;SDS011;4281;45.772;12.852;2022-12-07T11:56:31;3.53;;;2.93;;
8488;SDS011;4281;45.772;12.852;2022-12-07T11:59:04;4.00;;;3.10;;
8488;SDS011;4281;45.772;12.852;2022-12-07T12:01:44;4.23;;;3.30;;
8488;SDS011;4281;45.772;12.852;2022-12-07T12:04:24;3.40;;;3.10;;
8488;SDS011;4281;45.772;12.852;2022-12-07T12:06:55;2.77;;;2.33;;
8488;SDS011;4281;45.772;12.852;2022-12-07T12:09:25;2.83;;;2.60;;
8488;SDS011;4281;45.772;12.852;2022-12-07T12:12:10;2.40;;;2.20;;
8488;SDS011;4281;45.772;12.852;2022-12-07T12:15:09;2.57;;;2.33;;
8488;SDS011;4281;45.772;12.852;2022-12-07T12:17:49;2.10;;;1.90;;
8488;SDS011;4281;45.772;12.852;2022-12-07T12:20:22;2.27;;;2.07;;
8488;SDS011;4281;45.772;12.852;2022-12-07T12:22:53;2.10;;;1.77;;
8488;SDS011;4281;45.772;12.852;2022-12-07T12:25:24;2.20;;;2.00;;
8488;SDS011;4281;45.772;12.852;2022-12-07T12:27:54;2.23;;;2.03;;
8488;SDS011;4281;45.772;12.852;2022-12-07T12:30:25;2.00;;;1.80;;
8488;SDS011;4281;45.772;12.852;2022-12-07T12:33:01;2.43;;;1.93;;
8488;SDS011;4281;45.772;12.852;2022-12-07T12:35:31;2.30;;;2.10;;
8488;SDS011;4281;45.772;12.852;2022-12-07T12:40:59;2.00;;;1.90;;
8488;SDS011;4281;45.772;12.852;2022-12-07T12:43:45;3.00;;;2.30;;
8488;SDS011;4281;45.772;12.852;2022-12-07T12:55:29;1.80;;;1.70;;
8488;SDS011;4281;45.772;12.852;2022-12-07T12:58:32;1.90;;;1.80;;
8488;SDS011;4281;45.772;12.852;2022-12-07T13:07:11;2.30;;;2.10;;
8488;SDS011;4281;45.772;12.852;2022-12-07T13:09:42;2.43;;;2.23;;
8488;SDS011;4281;45.772;12.852;2022-12-07T13:12:12;3.27;;;2.30;;
8488;SDS011;4281;45.772;12.852;2022-12-07T13:14:52;2.87;;;2.20;;
8488;SDS011;4281;45.772;12.852;2022-12-07T13:23:24;2.90;;;2.27;;
8488;SDS011;4281;45.772;12.852;2022-12-07T13:26:00;2.47;;;2.27;;
8488;SDS011;4281;45.772;12.852;2022-12-07T13:28:33;2.50;;;2.30;;
8488;SDS011;4281;45.772;12.852;2022-12-07T13:31:10;2.60;;;2.40;;
8488;SDS011;4281;45.772;12.852;2022-12-07T13:33:44;2.47;;;2.27;;
8488;SDS011;4281;45.772;12.852;2022-12-07T13:36:14;2.13;;;1.93;;
8488;SDS011;4281;45.772;12.852;2022-12-07T13:38:54;2.80;;;2.60;;
8488;SDS011;4281;45.772;12.852;2022-12-07T13:41:23;2.17;;;1.97;;
8488;SDS011;4281;45.772;12.852;2022-12-07T13:43:53;2.27;;;2.07;;
8488;SDS011;4281;45.772;12.852;2022-12-07T13:46:33;2.50;;;2.30;;
8488;SDS011;4281;45.772;12.852;2022-12-07T13:49:18;2.07;;;1.90;;
8488;SDS011;4281;45.772;12.852;2022-12-07T13:51:48;2.00;;;1.90;;
8488;SDS011;4281;45.772;12.852;2022-12-07T13:54:16;1.90;;;1.70;;
8488;SDS011;4281;45.772;12.852;2022-12-07T13:56:47;2.10;;;1.90;;
8488;SDS011;4281;45.772;12.852;2022-12-07T13:59:17;2.10;;;1.97;;
8488;SDS011;4281;45.772;12.852;2022-12-07T14:01:46;2.70;;;2.00;;
8488;SDS011;4281;45.772;12.852;2022-12-07T14:07:18;2.00;;;1.73;;
8488;SDS011;4281;45.772;12.852;2022-12-07T14:09:57;2.57;;;2.37;;
8488;SDS011;4281;45.772;12.852;2022-12-07T14:12:27;2.43;;;1.80;;
8488;SDS011;4281;45.772;12.852;2022-12-07T14:14:56;1.90;;;1.67;;
8488;SDS011;4281;45.772;12.852;2022-12-07T14:17:24;2.33;;;2.10;;
8488;SDS011;4281;45.772;12.852;2022-12-07T14:19:54;2.30;;;2.10;;
8488;SDS011;4281;45.772;12.852;2022-12-07T14:22:27;2.30;;;2.10;;
8488;SDS011;4281;45.772;12.852;2022-12-07T14:25:14;1.93;;;1.80;;
8488;SDS011;4281;45.772;12.852;2022-12-07T14:27:48;1.70;;;1.60;;
8488;SDS011;4281;45.772;12.852;2022-12-07T14:30:19;2.27;;;2.07;;
8488;SDS011;4281;45.772;12.852;2022-12-07T14:32:48;1.80;;;1.70;;
8488;SDS011;4281;45.772;12.852;2022-12-07T14:35:19;2.10;;;1.90;;
8488;SDS011;4281;45.772;12.852;2022-12-07T14:37:48;1.87;;;1.70;;
8488;SDS011;4281;45.772;12.852;2022-12-07T14:40:17;2.10;;;1.93;;
8488;SDS011;4281;45.772;12.852;2022-12-07T14:42:47;1.80;;;1.70;;
8488;SDS011;4281;45.772;12.852;2022-12-07T14:45:17;2.53;;;2.10;;
8488;SDS011;4281;45.772;12.852;2022-12-07T14:47:46;2.43;;;2.13;;
8488;SDS011;4281;45.772;12.852;2022-12-07T14:50:36;2.07;;;1.90;;
8488;SDS011;4281;45.772;12.852;2022-12-07T14:53:26;3.00;;;2.70;;
8488;SDS011;4281;45.772;12.852;2022-12-07T14:55:56;3.10;;;2.73;;
8488;SDS011;4281;45.772;12.852;2022-12-07T14:58:24;2.97;;;2.67;;
8488;SDS011;4281;45.772;12.852;2022-12-07T15:00:52;3.87;;;3.50;;
8488;SDS011;4281;45.772;12.852;2022-12-07T15:03:20;5.07;;;3.67;;
8488;SDS011;4281;45.772;12.852;2022-12-07T15:05:49;4.87;;;4.37;;
8488;SDS011;4281;45.772;12.852;2022-12-07T15:08:16;5.27;;;4.60;;
8488;SDS011;4281;45.772;12.852;2022-12-07T15:10:44;5.10;;;4.60;;
8488;SDS011;4281;45.772;12.852;2022-12-07T15:13:12;6.27;;;5.60;;
8488;SDS011;4281;45.772;12.852;2022-12-07T15:16:03;5.67;;;5.10;;
8488;SDS011;4281;45.772;12.852;2022-12-07T15:18:31;5.20;;;4.53;;
8488;SDS011;4281;45.772;12.852;2022-12-07T15:21:01;4.90;;;4.40;;
8488;SDS011;4281;45.772;12.852;2022-12-07T15:23:28;4.33;;;3.83;;
8488;SDS011;4281;45.772;12.852;2022-12-07T15:25:57;4.50;;;4.10;;
8488;SDS011;4281;45.772;12.852;2022-12-07T15:28:25;4.17;;;3.77;;
8488;SDS011;4281;45.772;12.852;2022-12-07T15:30:52;4.23;;;3.83;;
8488;SDS011;4281;45.772;12.852;2022-12-07T15:33:20;4.30;;;3.90;;
8488;SDS011;4281;45.772;12.852;2022-12-07T15:35:48;5.40;;;4.80;;
8488;SDS011;4281;45.772;12.852;2022-12-07T15:38:17;5.20;;;4.70;;
8488;SDS011;4281;45.772;12.852;2022-12-07T15:41:06;5.70;;;5.10;;
8488;SDS011;4281;45.772;12.852;2022-12-07T15:43:34;5.70;;;5.20;;
8488;SDS011;4281;45.772;12.852;2022-12-07T15:46:20;6.07;;;5.20;;
8488;SDS011;4281;45.772;12.852;2022-12-07T15:48:48;6.20;;;5.60;;
8488;SDS011;4281;45.772;12.852;2022-12-07T15:51:16;7.40;;;5.77;;
8488;SDS011;4281;45.772;12.852;2022-12-07T15:53:51;7.00;;;6.30;;
8488;SDS011;4281;45.772;12.852;2022-12-07T16:02:57;8.93;;;7.80;;
8488;SDS011;4281;45.772;12.852;2022-12-07T16:05:25;10.30;;;8.77;;